createdAt,value
2023-07-20T00:02:15.425Z,61.02
2023-07-20T00:04:42.678Z,60.53
2023-07-20T00:07:09.979Z,60.84
2023-07-20T00:10:21.441Z,62.17
2023-07-20T00:12:48.965Z,62.28
2023-07-20T00:15:16.131Z,63.15
2023-07-20T00:17:46.197Z,62.76
2023-07-20T00:20:15.850Z,61.24
2023-07-20T00:22:43.203Z,60.84
2023-07-20T00:25:12.694Z,61.09
2023-07-20T00:27:42.763Z,61.72
2023-07-20T00:30:10.595Z,62.58
2023-07-20T00:32:37.901Z,63.17
2023-07-20T00:35:06.843Z,62.95
2023-07-20T00:37:34.301Z,61.56
2023-07-20T00:40:01.663Z,61.24
2023-07-20T00:42:28.782Z,61.86
2023-07-20T00:44:56.464Z,62.84
2023-07-20T00:47:23.716Z,62.79
2023-07-20T00:49:51.515Z,63.97
2023-07-20T00:52:19.001Z,64.09
2023-07-20T00:54:46.295Z,62.78
2023-07-20T00:57:15.498Z,61.98
2023-07-20T00:59:43.432Z,61.64
2023-07-20T01:02:10.933Z,63.09
2023-07-20T01:04:41.044Z,63.77
2023-07-20T01:07:16.266Z,64.40
2023-07-20T01:09:49.893Z,63.78
2023-07-20T01:12:24.085Z,62.22
2023-07-20T01:14:51.825Z,61.70
2023-07-20T01:17:19.515Z,62.29
2023-07-20T01:19:46.847Z,63.16
2023-07-20T01:22:26.236Z,63.93
2023-07-20T01:25:07.080Z,64.55
2023-07-20T01:28:08.748Z,63.72
2023-07-20T01:31:15.112Z,61.82
2023-07-20T01:33:43.150Z,61.72
2023-07-20T01:36:11.729Z,62.30
2023-07-20T01:38:40.448Z,63.02
2023-07-20T01:41:10.274Z,63.66
2023-07-20T01:43:38.008Z,64.33
2023-07-20T01:46:06.118Z,63.83
2023-07-20T01:48:36.666Z,62.46
2023-07-20T01:51:03.880Z,62.16
2023-07-20T01:53:31.102Z,62.67
2023-07-20T01:55:58.882Z,63.29
2023-07-20T01:58:26.954Z,63.72
2023-07-20T02:00:55.057Z,64.57
2023-07-20T02:03:23.234Z,63.99
2023-07-20T02:05:54.062Z,62.45
2023-07-20T02:08:25.681Z,62.06
2023-07-20T02:10:53.159Z,62.18
2023-07-20T02:13:20.628Z,62.84
2023-07-20T02:15:50.869Z,63.75
2023-07-20T02:18:18.089Z,64.55
2023-07-20T02:20:46.975Z,63.94
2023-07-20T02:23:14.312Z,62.48
2023-07-20T02:25:42.290Z,62.18
2023-07-20T02:28:10.386Z,62.43
2023-07-20T02:30:43.154Z,63.01
2023-07-20T02:33:11.210Z,63.63
2023-07-20T02:35:38.767Z,64.36
2023-07-20T02:38:05.908Z,64.02
2023-07-20T02:40:33.296Z,62.56
2023-07-20T02:43:00.753Z,61.83
2023-07-20T02:45:27.959Z,62.34
2023-07-20T02:47:55.814Z,63.08
2023-07-20T02:50:23.637Z,63.93
2023-07-20T02:52:51.885Z,64.18
2023-07-20T02:55:19.038Z,64.01
2023-07-20T02:57:47.301Z,62.05
2023-07-20T03:00:17.935Z,61.56
2023-07-20T03:02:45.993Z,62.54
2023-07-20T03:05:13.288Z,63.87
2023-07-20T03:07:44.729Z,65.32
2023-07-20T03:10:12.899Z,65.70
2023-07-20T03:12:40.183Z,65.13
2023-07-20T03:15:08.610Z,65.09
2023-07-20T03:17:36.255Z,64.99
2023-07-20T03:20:10.519Z,64.96
2023-07-20T03:22:39.626Z,65.18
2023-07-20T03:25:07.137Z,64.75
2023-07-20T03:27:35.009Z,63.22
2023-07-20T03:30:03.010Z,62.51
2023-07-20T03:32:31.497Z,62.41
2023-07-20T03:34:58.743Z,62.63
2023-07-20T03:37:28.735Z,63.34
2023-07-20T03:39:55.976Z,64.13
2023-07-20T03:42:24.355Z,64.64
2023-07-20T03:44:52.111Z,63.39
2023-07-20T03:47:19.438Z,63.37
2023-07-20T03:49:46.785Z,64.24
2023-07-20T03:52:14.220Z,65.38
2023-07-20T03:54:43.082Z,65.87
2023-07-20T03:57:10.879Z,65.66
2023-07-20T03:59:39.048Z,64.65
2023-07-20T04:02:07.104Z,63.66
2023-07-20T04:04:35.072Z,64.95
2023-07-20T04:07:02.290Z,65.46
2023-07-20T04:09:30.205Z,65.68
2023-07-20T04:11:57.453Z,65.46
2023-07-20T04:14:25.646Z,63.89
2023-07-20T04:16:55.301Z,63.07
2023-07-20T04:19:22.591Z,63.44
2023-07-20T04:21:49.926Z,63.51
2023-07-20T04:24:17.258Z,64.52
2023-07-20T04:26:44.714Z,66.25
2023-07-20T04:29:11.882Z,66.11
2023-07-20T04:31:42.821Z,65.90
2023-07-20T04:34:09.990Z,65.41
2023-07-20T04:36:38.124Z,65.36
2023-07-20T04:39:09.894Z,66.30
2023-07-20T04:41:44.723Z,67.63
2023-07-20T04:44:11.892Z,67.35
2023-07-20T04:46:39.280Z,65.61
2023-07-20T04:49:10.770Z,64.45
2023-07-20T04:51:40.831Z,64.95
2023-07-20T04:54:08.350Z,65.42
2023-07-20T04:56:38.208Z,66.65
2023-07-20T04:59:08.379Z,66.24
2023-07-20T05:01:36.532Z,64.43
2023-07-20T05:04:04.408Z,64.42
2023-07-20T05:06:31.675Z,64.66
2023-07-20T05:08:58.848Z,64.97
2023-07-20T05:11:26.296Z,64.73
2023-07-20T05:13:55.834Z,64.09
2023-07-20T05:16:23.646Z,61.59
2023-07-20T05:18:51.347Z,61.35
2023-07-20T05:21:18.895Z,61.87
2023-07-20T05:23:46.757Z,62.25
2023-07-20T05:26:15.341Z,62.14
2023-07-20T05:28:44.622Z,62.46
2023-07-20T05:31:11.934Z,61.52
2023-07-20T05:33:39.233Z,59.58
2023-07-20T05:36:24.929Z,58.59
2023-07-20T05:38:55.375Z,58.19
2023-07-20T05:41:23.897Z,57.42
2023-07-20T05:43:51.096Z,57.22
2023-07-20T05:46:18.564Z,56.54
2023-07-20T05:48:45.977Z,57.40
2023-07-20T05:51:13.125Z,56.06
2023-07-20T05:53:41.095Z,53.50
2023-07-20T05:56:11.412Z,52.31
2023-07-20T05:58:38.801Z,50.46
2023-07-20T06:01:07.658Z,51.25
2023-07-20T06:03:35.533Z,50.42
2023-07-20T06:06:03.219Z,51.06
2023-07-20T06:08:30.822Z,51.42
2023-07-20T06:10:58.741Z,51.13
2023-07-20T06:13:28.456Z,51.09
2023-07-20T06:15:56.758Z,50.34
2023-07-20T06:18:26.690Z,50.83
2023-07-20T06:20:54.104Z,50.26
2023-07-20T06:23:21.429Z,49.79
2023-07-20T06:25:49.033Z,47.99
2023-07-20T06:28:16.982Z,47.90
2023-07-20T06:30:44.318Z,48.43
2023-07-20T06:33:12.554Z,49.59
2023-07-20T06:35:43.059Z,50.05
2023-07-20T06:40:40.589Z,51.51
2023-07-20T06:45:38.199Z,52.25
2023-07-20T06:48:06.165Z,52.42
2023-07-20T06:50:34.329Z,50.73
2023-07-20T06:53:04.656Z,49.66
2023-07-20T06:55:40.611Z,49.92
2023-07-20T06:58:10.138Z,51.71
2023-07-20T07:00:37.447Z,48.56
2023-07-20T07:03:04.897Z,50.14
2023-07-20T07:08:03.768Z,47.94
2023-07-20T07:10:33.518Z,50.49
2023-07-20T07:13:01.384Z,48.94
2023-07-20T07:15:28.915Z,51.47
2023-07-20T07:17:57.797Z,51.88
2023-07-20T07:20:25.841Z,51.99
2023-07-20T07:22:57.507Z,50.65
2023-07-20T07:25:24.852Z,50.95
2023-07-20T07:27:53.951Z,50.72
2023-07-20T07:30:21.495Z,50.51
2023-07-20T07:32:49.168Z,50.89
2023-07-20T07:35:16.523Z,50.87
2023-07-20T07:37:57.418Z,51.87
2023-07-20T07:40:32.516Z,53.41
2023-07-20T07:43:00.081Z,52.45
2023-07-20T07:45:28.238Z,54.40
2023-07-20T07:47:55.541Z,52.21
2023-07-20T07:50:26.274Z,50.78
2023-07-20T07:52:53.590Z,50.60
2023-07-20T07:55:21.049Z,51.16
2023-07-20T07:57:49.200Z,51.74
2023-07-20T08:00:20.301Z,52.16
2023-07-20T08:02:49.614Z,52.47
2023-07-20T08:05:17.127Z,51.85
2023-07-20T08:07:45.295Z,52.74
2023-07-20T08:10:13.151Z,53.12
2023-07-20T08:12:41.665Z,51.59
2023-07-20T08:15:12.399Z,52.74
2023-07-20T08:17:40.064Z,52.63
2023-07-20T08:20:13.558Z,51.52
2023-07-20T08:22:40.709Z,51.85
2023-07-20T08:25:08.538Z,52.22
2023-07-20T08:27:38.749Z,51.40
2023-07-20T08:30:06.751Z,52.82
2023-07-20T08:32:34.333Z,52.96
2023-07-20T08:35:01.558Z,52.79
2023-07-20T08:37:29.254Z,52.90
2023-07-20T08:39:58.943Z,52.82
2023-07-20T08:42:26.687Z,53.31
2023-07-20T08:44:54.274Z,54.06
2023-07-20T08:47:22.023Z,53.14
2023-07-20T08:49:51.968Z,53.80
2023-07-20T08:52:19.313Z,53.72
2023-07-20T08:54:47.531Z,53.07
2023-07-20T08:57:15.733Z,51.96
2023-07-20T08:59:43.194Z,51.96
2023-07-20T09:02:10.986Z,52.52
2023-07-20T09:04:46.086Z,52.36
2023-07-20T09:07:13.625Z,53.32
2023-07-20T09:09:43.337Z,54.11
2023-07-20T09:12:17.628Z,54.26
2023-07-20T09:14:49.089Z,54.29
2023-07-20T09:17:17.984Z,54.33
2023-07-20T09:19:49.662Z,54.83
2023-07-20T09:22:19.352Z,55.63
2023-07-20T09:24:50.211Z,56.29
2023-07-20T09:27:21.852Z,54.50
2023-07-20T09:29:52.886Z,53.09
2023-07-20T09:34:53.031Z,52.56
2023-07-20T09:37:24.050Z,53.62
2023-07-20T09:44:54.006Z,56.77
2023-07-20T09:55:05.585Z,55.17
2023-07-20T09:57:37.110Z,55.78
2023-07-20T10:02:46.514Z,56.72
2023-07-20T10:05:15.424Z,57.81
2023-07-20T10:07:49.772Z,58.48
2023-07-20T10:10:18.501Z,58.44
2023-07-20T10:12:48.055Z,57.76
2023-07-20T10:15:24.449Z,57.23
2023-07-20T10:18:01.459Z,56.68
2023-07-20T10:20:30.105Z,57.36
2023-07-20T10:22:58.154Z,58.39
2023-07-20T10:25:25.533Z,57.78
2023-07-20T10:27:53.200Z,57.00
2023-07-20T10:30:21.186Z,57.92
2023-07-20T10:32:48.624Z,57.99
2023-07-20T10:35:17.204Z,55.85
2023-07-20T10:37:50.861Z,54.69
2023-07-20T10:40:39.769Z,55.15
2023-07-20T10:43:08.771Z,55.14
2023-07-20T10:45:44.018Z,54.95
2023-07-20T10:48:21.542Z,56.34
2023-07-20T10:51:17.614Z,56.27
2023-07-20T10:53:44.919Z,56.44
2023-07-20T10:56:38.921Z,56.33
2023-07-20T10:59:38.256Z,53.57
2023-07-20T11:02:09.015Z,52.06
2023-07-20T11:04:43.806Z,51.71
2023-07-20T11:07:18.571Z,51.44
2023-07-20T11:09:49.162Z,50.28
2023-07-20T11:12:18.398Z,50.38
2023-07-20T11:14:55.666Z,51.87
2023-07-20T11:17:30.909Z,51.90
2023-07-20T11:22:28.990Z,50.68
2023-07-20T11:24:59.345Z,49.90
2023-07-20T11:27:26.752Z,49.38
2023-07-20T11:29:54.206Z,50.14
2023-07-20T11:32:23.105Z,49.87
2023-07-20T11:34:51.173Z,50.74
2023-07-20T11:37:19.487Z,49.98
2023-07-20T11:39:47.650Z,49.76
2023-07-20T11:43:20.076Z,50.34
2023-07-20T11:45:06.859Z,50.03
2023-07-20T11:47:35.906Z,50.48
2023-07-20T11:50:07.039Z,51.44
2023-07-20T11:52:34.845Z,51.18
2023-07-20T11:55:02.938Z,51.10
2023-07-20T11:57:30.978Z,51.48
2023-07-20T11:59:59.132Z,52.01
2023-07-20T12:02:28.379Z,52.41
2023-07-20T12:04:55.989Z,52.35
2023-07-20T12:07:23.639Z,52.19
2023-07-20T12:10:07.001Z,51.96
2023-07-20T12:12:44.709Z,52.32
2023-07-20T12:15:18.932Z,51.95
2023-07-20T12:17:47.461Z,51.37
2023-07-20T12:20:15.317Z,52.51
2023-07-20T12:22:44.752Z,52.65
2023-07-20T12:25:11.994Z,52.27
2023-07-20T12:27:39.693Z,52.10
2023-07-20T12:30:07.659Z,52.28
2023-07-20T12:32:34.966Z,52.43
2023-07-20T12:35:02.704Z,52.63
2023-07-20T12:37:30.035Z,52.35
2023-07-20T12:39:57.448Z,52.73
2023-07-20T12:42:24.830Z,51.90
2023-07-20T12:44:52.102Z,52.63
2023-07-20T12:47:19.722Z,52.10
2023-07-20T12:49:47.961Z,51.44
2023-07-20T12:52:15.280Z,51.06
2023-07-20T12:54:42.747Z,52.34
2023-07-20T12:57:13.477Z,52.31
2023-07-20T12:59:40.915Z,50.64
2023-07-20T13:02:08.244Z,50.75
2023-07-20T13:04:35.600Z,50.71
2023-07-20T13:09:50.069Z,50.03
2023-07-20T13:12:17.876Z,50.60
2023-07-20T13:14:45.082Z,50.43
2023-07-20T13:17:12.638Z,50.42
2023-07-20T13:19:40.336Z,50.17
2023-07-20T13:22:07.472Z,50.38
2023-07-20T13:24:34.941Z,49.29
2023-07-20T13:27:02.300Z,49.74
2023-07-20T13:29:29.755Z,49.73
2023-07-20T13:31:57.012Z,48.56
2023-07-20T13:34:25.449Z,47.12
2023-07-20T13:36:52.624Z,46.77
2023-07-20T13:39:19.950Z,47.35
2023-07-20T13:41:48.572Z,47.35
2023-07-20T13:44:22.468Z,46.71
2023-07-20T13:46:50.688Z,47.88
2023-07-20T13:49:23.425Z,47.90
2023-07-20T13:56:52.688Z,46.51
2023-07-20T13:59:20.625Z,46.42
2023-07-20T14:01:48.618Z,46.52
2023-07-20T14:04:18.338Z,46.53
2023-07-20T14:06:46.130Z,46.28
2023-07-20T14:09:13.659Z,47.03
2023-07-20T14:14:12.802Z,47.52
2023-07-20T14:16:40.154Z,47.64
2023-07-20T14:19:07.736Z,46.42
2023-07-20T14:21:35.631Z,46.90
2023-07-20T14:24:03.479Z,47.32
2023-07-20T14:26:33.531Z,46.94
2023-07-20T14:29:01.241Z,46.47
2023-07-20T14:31:28.951Z,46.70
2023-07-20T14:33:56.499Z,46.93
2023-07-20T14:36:26.387Z,47.21
2023-07-20T14:38:54.107Z,46.87
2023-07-20T14:41:21.864Z,47.07
2023-07-20T14:43:49.494Z,47.29
2023-07-20T14:46:18.306Z,46.47
2023-07-20T14:48:48.261Z,46.87
2023-07-20T14:51:16.344Z,46.65
2023-07-20T14:53:44.436Z,47.42
2023-07-20T14:56:11.852Z,48.15
2023-07-20T14:58:39.882Z,47.24
2023-07-20T15:01:07.076Z,47.76
2023-07-20T15:03:34.840Z,45.70
2023-07-20T15:06:02.361Z,46.16
2023-07-20T15:08:29.903Z,46.12
2023-07-20T15:10:57.449Z,46.41
2023-07-20T15:13:24.936Z,46.97
2023-07-20T15:15:55.093Z,46.42
2023-07-20T15:18:33.776Z,46.88
2023-07-20T15:21:05.106Z,47.22
2023-07-20T15:23:32.980Z,46.87
2023-07-20T15:26:00.518Z,46.92
2023-07-20T15:28:29.316Z,46.96
2023-07-20T15:31:03.632Z,46.56
2023-07-20T15:33:31.350Z,46.13
2023-07-20T15:35:58.672Z,47.05
2023-07-20T15:38:25.997Z,47.09
2023-07-20T15:40:53.682Z,47.43
2023-07-20T15:43:21.715Z,47.72
2023-07-20T15:45:52.637Z,47.59
2023-07-20T15:48:20.096Z,47.45
2023-07-20T15:50:47.384Z,47.90
2023-07-20T15:53:14.611Z,47.45
2023-07-20T15:55:42.534Z,46.91
2023-07-20T15:58:10.548Z,46.62
2023-07-20T16:00:39.015Z,46.10
2023-07-20T16:03:07.490Z,45.16
2023-07-20T16:05:35.922Z,45.69
2023-07-20T16:08:05.907Z,45.65
2023-07-20T16:10:35.154Z,45.13
2023-07-20T16:13:04.255Z,45.39
2023-07-20T16:18:02.131Z,45.45
2023-07-20T16:20:29.531Z,45.37
2023-07-20T16:22:56.758Z,46.18
2023-07-20T16:25:25.120Z,45.84
2023-07-20T16:27:52.524Z,46.22
2023-07-20T16:30:19.766Z,46.80
2023-07-20T16:32:52.024Z,46.80
2023-07-20T16:35:22.301Z,46.87
2023-07-20T16:38:13.025Z,46.62
2023-07-20T16:43:12.817Z,46.95
2023-07-20T16:45:40.214Z,46.74
2023-07-20T16:48:07.814Z,47.07
2023-07-20T16:50:35.108Z,46.94
2023-07-20T16:53:02.228Z,46.40
2023-07-20T16:55:29.661Z,46.71
2023-07-20T16:57:56.923Z,47.05
2023-07-20T17:00:24.080Z,47.11
2023-07-20T17:02:51.908Z,47.17
2023-07-20T17:05:19.229Z,47.77
2023-07-20T17:07:46.719Z,48.16
2023-07-20T17:10:14.124Z,47.98
2023-07-20T17:12:41.476Z,48.22
2023-07-20T17:15:09.452Z,48.44
2023-07-20T17:17:37.014Z,49.04
2023-07-20T17:22:37.414Z,48.94
2023-07-20T17:30:09.069Z,50.22
2023-07-20T17:32:38.632Z,50.77
2023-07-20T17:35:06.305Z,50.81
2023-07-20T17:45:14.852Z,53.07
2023-07-20T17:47:43.534Z,53.31
2023-07-20T17:50:12.101Z,53.34
2023-07-20T17:52:40.241Z,52.82
2023-07-20T17:55:07.604Z,53.71
2023-07-20T17:57:35.847Z,53.87
2023-07-20T18:02:38.566Z,54.56
2023-07-20T18:05:07.100Z,55.06
2023-07-20T18:07:35.194Z,55.74
2023-07-20T18:10:04.620Z,56.37
2023-07-20T18:12:32.726Z,55.69
2023-07-20T18:15:00.459Z,53.91
2023-07-20T18:17:27.939Z,53.47
2023-07-20T18:19:59.216Z,53.63
2023-07-20T18:22:26.471Z,54.31
2023-07-20T18:24:53.971Z,54.91
2023-07-20T18:27:21.379Z,54.93
2023-07-20T18:29:49.432Z,55.54
2023-07-20T18:32:16.917Z,56.25
2023-07-20T18:34:44.098Z,56.66
2023-07-20T18:37:11.711Z,56.67
2023-07-20T18:39:39.073Z,56.78
2023-07-20T18:42:06.786Z,56.26
2023-07-20T18:44:34.187Z,55.08
2023-07-20T18:47:01.475Z,54.51
2023-07-20T18:49:30.376Z,54.70
2023-07-20T18:51:57.603Z,54.84
2023-07-20T18:54:25.379Z,54.98
2023-07-20T18:56:53.046Z,55.68
2023-07-20T18:59:20.287Z,56.28
2023-07-20T19:01:48.845Z,56.28
2023-07-20T19:04:16.201Z,56.91
2023-07-20T19:06:43.886Z,57.89
2023-07-20T19:13:49.277Z,58.22
2023-07-20T19:16:16.551Z,55.58
2023-07-20T19:18:43.866Z,55.98
2023-07-20T19:21:11.135Z,56.47
2023-07-20T19:23:39.068Z,56.64
2023-07-20T19:26:10.278Z,57.55
2023-07-20T19:28:39.043Z,57.76
2023-07-20T19:31:06.534Z,58.39
2023-07-20T19:33:34.513Z,59.17
2023-07-20T19:36:01.901Z,58.84
2023-07-20T19:38:29.642Z,57.22
2023-07-20T19:40:57.543Z,56.79
2023-07-20T19:43:24.817Z,56.74
2023-07-20T19:45:52.581Z,57.34
2023-07-20T19:48:23.722Z,57.86
2023-07-20T19:50:56.069Z,58.65
2023-07-20T19:56:00.709Z,59.92
2023-07-20T19:58:29.213Z,58.98
2023-07-20T20:05:58.395Z,57.51
2023-07-20T20:08:31.331Z,57.85
2023-07-20T20:13:32.634Z,59.00
2023-07-20T20:16:00.151Z,59.38
2023-07-20T20:18:30.186Z,60.21
2023-07-20T20:21:00.245Z,59.76
2023-07-20T20:23:27.499Z,58.17
2023-07-20T20:25:55.450Z,57.69
2023-07-20T20:28:24.038Z,58.13
2023-07-20T20:30:52.974Z,58.71
2023-07-20T20:33:24.106Z,59.45
2023-07-20T20:35:53.618Z,59.82
2023-07-20T20:38:22.103Z,60.39
2023-07-20T20:40:52.452Z,59.94
2023-07-20T20:43:19.833Z,58.69
2023-07-20T20:45:47.479Z,58.23
2023-07-20T20:48:14.933Z,58.22
2023-07-20T20:50:46.240Z,58.74
2023-07-20T20:53:13.966Z,59.52
2023-07-20T20:55:42.268Z,59.99
2023-07-20T20:58:10.308Z,60.62
2023-07-20T21:00:37.632Z,60.18
2023-07-20T21:03:04.761Z,58.51
2023-07-20T21:05:38.295Z,57.94
2023-07-20T21:08:05.950Z,58.16
2023-07-20T21:10:34.542Z,58.20
2023-07-20T21:13:01.935Z,57.97
2023-07-20T21:15:29.184Z,59.35
2023-07-20T21:17:56.682Z,60.35
2023-07-20T21:20:24.053Z,60.52
2023-07-20T21:22:51.231Z,58.96
2023-07-20T21:25:18.604Z,58.24
2023-07-20T21:27:45.955Z,58.59
2023-07-20T21:30:13.827Z,58.95
2023-07-20T21:32:41.120Z,59.56
2023-07-20T21:35:08.931Z,60.19
2023-07-20T21:37:36.506Z,60.81
2023-07-20T21:40:04.875Z,60.62
2023-07-20T21:42:32.458Z,59.44
2023-07-20T21:44:59.624Z,58.67
2023-07-20T21:47:27.353Z,59.03
2023-07-20T21:49:54.611Z,59.85
2023-07-20T21:52:21.784Z,60.56
2023-07-20T21:54:49.361Z,61.05
2023-07-20T21:57:16.767Z,61.41
2023-07-20T21:59:44.001Z,61.00
2023-07-20T22:02:11.809Z,59.78
2023-07-20T22:04:38.954Z,59.19
2023-07-20T22:07:15.012Z,59.27
2023-07-20T22:09:45.816Z,58.86
2023-07-20T22:12:13.576Z,59.45
2023-07-20T22:14:41.127Z,60.83
2023-07-20T22:17:08.896Z,60.64
2023-07-20T22:19:38.190Z,61.47
2023-07-20T22:22:08.210Z,59.84
2023-07-20T22:24:36.056Z,59.04
2023-07-20T22:27:05.067Z,58.99
2023-07-20T22:29:35.469Z,59.63
2023-07-20T22:32:07.433Z,60.19
2023-07-20T22:34:35.068Z,60.40
2023-07-20T22:37:07.949Z,61.58
2023-07-20T22:39:35.691Z,61.12
2023-07-20T22:42:03.514Z,59.49
2023-07-20T22:44:31.615Z,58.80
2023-07-20T22:47:03.580Z,59.07
2023-07-20T22:49:31.857Z,59.75
2023-07-20T22:52:00.034Z,59.65
2023-07-20T22:54:27.393Z,60.83
2023-07-20T22:56:58.095Z,61.72
2023-07-20T22:59:29.186Z,61.12
2023-07-20T23:01:56.924Z,59.75
2023-07-20T23:04:24.481Z,59.75
2023-07-20T23:06:51.962Z,60.13
2023-07-20T23:09:20.309Z,60.57
2023-07-20T23:11:47.513Z,60.98
2023-07-20T23:14:14.914Z,61.66
2023-07-20T23:16:43.231Z,62.06
2023-07-20T23:19:10.380Z,60.60
2023-07-20T23:21:38.584Z,60.05
2023-07-20T23:24:06.440Z,60.58
2023-07-20T23:26:33.939Z,60.76
2023-07-20T23:29:01.035Z,61.42
2023-07-20T23:31:28.602Z,61.85
2023-07-20T23:33:56.612Z,62.32
2023-07-20T23:36:24.386Z,61.43
2023-07-20T23:38:52.503Z,59.97
2023-07-20T23:41:20.561Z,59.68
2023-07-20T23:43:48.391Z,60.16
2023-07-20T23:46:24.160Z,60.25
2023-07-20T23:48:51.805Z,60.78
2023-07-20T23:51:20.083Z,62.01
2023-07-20T23:53:48.272Z,61.66
2023-07-20T23:56:15.825Z,60.04
2023-07-20T23:58:44.013Z,60.23
